Flight Track Log - Related Links

Times and Time Zones

All times are in EDT time to prevent confusion due to time zone crossing. See the ASQ5169 flight status page for this flight to view local times or setup timezone preferences in your user account.

Time Position Orientation Groundspeed Altitude Reporting Facility
EDT Latitude Longitude Course Direction KTS MPH feet Rate Location/Type
Wed 11:22:21 PM 40.8475 -73.8256 30° Northeast 232 267 2,400  Level Boston Center
Wed 11:23:21 PM 40.9106 -73.7803 28° Northeast 250 288 5,200 2,750 Climbing Boston Center
Wed 11:24:21 PM 40.9800 -73.7267 30° Northeast 264 304 7,900 2,850 Climbing Boston Center
Wed 11:25:21 PM 41.0517 -73.6622 34° Northeast 300 345 10,900 2,550 Climbing Boston Center
Wed 11:26:21 PM 41.1125 -73.6111 32° Northeast 311 358 13,000 1,850 Climbing Boston Center
Wed 11:27:00 PM 41.1328 -73.5838 30° Northeast  Level FlightAware Approximate
Wed 11:27:21 PM 41.2094 -73.5272 33° Northeast 336 387 14,600  Level Boston Center
Wed 11:28:21 PM 41.2911 -73.4594 32° Northeast 372 428 16,600 1,900 Climbing Boston Center
Wed 11:29:21 PM 41.3942 -73.3697 33° Northeast 392 451 18,400 1,700 Climbing Boston Center
Wed 11:30:21 PM 41.5089 -73.3519 North 405 466 20,000 1,100 Climbing Boston Center
Wed 11:31:21 PM 41.6297 -73.3483 North 405 466 20,600 1,000 Climbing Boston Center
Wed 11:32:21 PM 41.7592 -73.3389 North 438 504 22,000 1,400 Climbing Boston Center
Wed 11:33:21 PM 41.8883 -73.3325 North 456 525 23,400 1,400 Climbing Boston Center
Wed 11:34:21 PM 42.0197 -73.3231 North 466 536 24,800 800 Climbing Boston Center
Wed 11:35:21 PM 42.1572 -73.3139 North 477 549 25,000 100 Climbing Boston Center
Wed 11:36:21 PM 42.3011 -73.3047 North 499 574 25,000 -50 Level Boston Center
Wed 11:37:21 PM 42.4264 -73.2894 North 499 574 24,900 -50 Descending Boston Center
Wed 11:38:21 PM 42.5619 -73.2772 North 499 574 24,900 50 Level Boston Center
Wed 11:39:21 PM 42.6933 -73.2789 359° North 481 554 25,000 50 Climbing Boston Center
Wed 11:40:21 PM 42.8225 -73.2694 North 468 539 25,000  Level Boston Center
Wed 11:41:21 PM 42.9497 -73.2628 North 463 533 25,000  Level Boston Center
Wed 11:42:21 PM 43.0769 -73.2531 North 458 527 25,000  Level Boston Center
Wed 11:43:21 PM 43.2019 -73.2433 North 458 527 25,000 -250 Level Boston Center
Wed 11:44:21 PM 43.3250 -73.2364 North 452 520 24,500 -1,800 Descending Boston Center
Wed 11:45:21 PM 43.4625 -73.2294 North 446 513 21,400 -3,050 Descending Boston Center
Wed 11:46:21 PM 43.5897 -73.2197 North 446 513 18,400 -2,950 Descending Boston Center
Wed 11:47:21 PM 43.7067 -73.2097 North 440 506 15,500 -2,636 Descending Boston Center
Wed 11:48:33 PM 43.8169 -73.2025 North 412 474 12,600 -2,227 Descending Boston Center
Wed 11:49:33 PM 43.9336 -73.2214 353° North 366 421 10,600 -1,600 Descending Boston Center
Wed 11:50:33 PM 44.0125 -73.2483 346° North 317 365 9,400 -1,300 Descending Boston Center
Wed 11:51:33 PM 44.0811 -73.2753 344° North 288 331 8,000 -1,250 Descending Boston Center
Wed 11:52:33 PM 44.1561 -73.3022 346° North 279 321 6,900 -1,300 Descending Boston Center
Wed 11:53:33 PM 44.2267 -73.3208 349° North 271 312 5,400 -1,500 Descending Boston Center
Wed 11:54:33 PM 44.2956 -73.3247 358° North 250 288 3,900 -950 Descending Boston Center
Wed 11:55:33 PM 44.3619 -73.3286 358° North 243 280 3,500 -550 Descending Boston Center
Wed 11:56:33 PM 44.4267 -73.3353 356° North 237 273 2,800 -500 Descending Boston Center
Wed 11:57:33 PM 44.4725 -73.3244 10° North 194 223 2,500 -400 Descending Boston Center
Wed 11:58:33 PM 44.5042 -73.2783 46° Northeast 158 182 2,000 -550 Descending Boston Center
Wed 11:59:33 PM 44.5108 -73.2289 79° East 152 175 1,400 -750 Descending Boston Center
Thu 12:00:33 AM 44.4839 -73.1733 124° Southeast 135 155 500 -500 Descending Boston Center
Thu 12:01:45 AM 44.4717 -73.1528 130° Southeast 74 85 300 -167 Descending Boston Center

Login

Don't have an account? Register now (free) for customized features, flight alerts, and more!